sensor_id;sensor_type;location;lat;lon;timestamp;P1;durP1;ratioP1;P2;durP2;ratioP2
64457;SDS011;58438;51.200;7.252;2022-10-31T00:00:06;17.20;;;7.82;;
64457;SDS011;58438;51.200;7.252;2022-10-31T00:02:54;15.00;;;7.32;;
64457;SDS011;58438;51.200;7.252;2022-10-31T00:05:42;18.98;;;7.65;;
64457;SDS011;58438;51.200;7.252;2022-10-31T00:08:30;12.55;;;6.97;;
64457;SDS011;58438;51.200;7.252;2022-10-31T00:11:17;14.65;;;7.95;;
64457;SDS011;58438;51.200;7.252;2022-10-31T00:14:04;13.13;;;7.32;;
64457;SDS011;58438;51.200;7.252;2022-10-31T00:16:51;13.10;;;7.28;;
64457;SDS011;58438;51.200;7.252;2022-10-31T00:19:38;12.15;;;6.68;;
64457;SDS011;58438;51.200;7.252;2022-10-31T00:22:26;16.30;;;7.00;;
64457;SDS011;58438;51.200;7.252;2022-10-31T00:25:14;10.50;;;7.03;;
64457;SDS011;58438;51.200;7.252;2022-10-31T00:28:00;12.38;;;8.02;;
64457;SDS011;58438;51.200;7.252;2022-10-31T00:30:48;11.88;;;6.68;;
64457;SDS011;58438;51.200;7.252;2022-10-31T00:33:36;16.15;;;7.63;;
64457;SDS011;58438;51.200;7.252;2022-10-31T00:36:23;13.43;;;7.57;;
64457;SDS011;58438;51.200;7.252;2022-10-31T00:39:11;14.73;;;7.97;;
64457;SDS011;58438;51.200;7.252;2022-10-31T00:41:58;18.60;;;8.00;;
64457;SDS011;58438;51.200;7.252;2022-10-31T00:44:45;14.98;;;7.38;;
64457;SDS011;58438;51.200;7.252;2022-10-31T00:47:32;20.65;;;7.95;;
64457;SDS011;58438;51.200;7.252;2022-10-31T00:50:19;18.13;;;8.65;;
64457;SDS011;58438;51.200;7.252;2022-10-31T00:53:06;16.77;;;7.75;;
64457;SDS011;58438;51.200;7.252;2022-10-31T00:55:54;19.33;;;7.90;;
64457;SDS011;58438;51.200;7.252;2022-10-31T00:58:42;13.85;;;7.90;;
64457;SDS011;58438;51.200;7.252;2022-10-31T01:01:28;14.10;;;7.70;;
64457;SDS011;58438;51.200;7.252;2022-10-31T01:04:16;18.95;;;7.82;;
64457;SDS011;58438;51.200;7.252;2022-10-31T01:07:03;13.35;;;7.30;;
64457;SDS011;58438;51.200;7.252;2022-10-31T01:09:49;14.85;;;7.45;;
64457;SDS011;58438;51.200;7.252;2022-10-31T01:12:38;20.08;;;7.88;;
64457;SDS011;58438;51.200;7.252;2022-10-31T01:15:26;17.42;;;9.45;;
64457;SDS011;58438;51.200;7.252;2022-10-31T01:18:15;16.85;;;8.23;;
64457;SDS011;58438;51.200;7.252;2022-10-31T01:21:06;16.10;;;8.13;;
64457;SDS011;58438;51.200;7.252;2022-10-31T01:23:55;17.77;;;8.35;;
64457;SDS011;58438;51.200;7.252;2022-10-31T01:29:39;15.52;;;7.50;;
64457;SDS011;58438;51.200;7.252;2022-10-31T01:32:28;13.27;;;7.57;;
64457;SDS011;58438;51.200;7.252;2022-10-31T01:35:17;19.13;;;9.15;;
64457;SDS011;58438;51.200;7.252;2022-10-31T01:38:06;19.67;;;8.75;;
64457;SDS011;58438;51.200;7.252;2022-10-31T01:40:55;19.05;;;9.10;;
64457;SDS011;58438;51.200;7.252;2022-10-31T01:43:43;17.10;;;8.40;;
64457;SDS011;58438;51.200;7.252;2022-10-31T01:46:35;17.02;;;9.52;;
64457;SDS011;58438;51.200;7.252;2022-10-31T01:49:27;18.52;;;9.27;;
64457;SDS011;58438;51.200;7.252;2022-10-31T01:52:18;14.43;;;8.25;;
64457;SDS011;58438;51.200;7.252;2022-10-31T01:55:10;15.82;;;9.32;;
64457;SDS011;58438;51.200;7.252;2022-10-31T01:58:02;18.98;;;9.25;;
64457;SDS011;58438;51.200;7.252;2022-10-31T02:00:53;18.83;;;9.65;;
64457;SDS011;58438;51.200;7.252;2022-10-31T02:03:50;26.60;;;11.18;;
64457;SDS011;58438;51.200;7.252;2022-10-31T02:06:48;20.13;;;10.77;;
64457;SDS011;58438;51.200;7.252;2022-10-31T02:09:40;23.77;;;11.23;;
64457;SDS011;58438;51.200;7.252;2022-10-31T02:12:29;18.88;;;10.50;;
64457;SDS011;58438;51.200;7.252;2022-10-31T02:15:17;20.42;;;10.18;;
64457;SDS011;58438;51.200;7.252;2022-10-31T02:18:04;21.00;;;11.80;;
64457;SDS011;58438;51.200;7.252;2022-10-31T02:20:57;32.22;;;12.52;;
64457;SDS011;58438;51.200;7.252;2022-10-31T02:23:58;20.85;;;10.60;;
64457;SDS011;58438;51.200;7.252;2022-10-31T02:26:51;24.73;;;11.07;;
64457;SDS011;58438;51.200;7.252;2022-10-31T02:29:53;19.60;;;10.70;;
64457;SDS011;58438;51.200;7.252;2022-10-31T02:32:50;20.33;;;9.95;;
64457;SDS011;58438;51.200;7.252;2022-10-31T02:35:40;25.20;;;10.43;;
64457;SDS011;58438;51.200;7.252;2022-10-31T02:38:31;22.42;;;10.05;;
64457;SDS011;58438;51.200;7.252;2022-10-31T02:41:19;22.08;;;10.00;;
64457;SDS011;58438;51.200;7.252;2022-10-31T02:44:09;17.80;;;9.07;;
64457;SDS011;58438;51.200;7.252;2022-10-31T02:47:03;24.27;;;11.05;;
64457;SDS011;58438;51.200;7.252;2022-10-31T02:49:54;20.33;;;9.15;;
64457;SDS011;58438;51.200;7.252;2022-10-31T02:52:44;19.20;;;10.18;;
64457;SDS011;58438;51.200;7.252;2022-10-31T02:55:42;19.00;;;9.30;;
64457;SDS011;58438;51.200;7.252;2022-10-31T02:58:31;22.08;;;10.32;;
64457;SDS011;58438;51.200;7.252;2022-10-31T03:01:24;15.95;;;8.98;;
64457;SDS011;58438;51.200;7.252;2022-10-31T03:04:20;17.45;;;8.95;;
64457;SDS011;58438;51.200;7.252;2022-10-31T03:07:14;17.02;;;10.50;;
64457;SDS011;58438;51.200;7.252;2022-10-31T03:10:03;17.85;;;9.30;;
64457;SDS011;58438;51.200;7.252;2022-10-31T03:12:53;21.80;;;9.32;;
64457;SDS011;58438;51.200;7.252;2022-10-31T03:15:44;16.02;;;8.48;;
64457;SDS011;58438;51.200;7.252;2022-10-31T03:18:32;19.83;;;10.05;;
64457;SDS011;58438;51.200;7.252;2022-10-31T03:21:22;18.13;;;10.52;;
64457;SDS011;58438;51.200;7.252;2022-10-31T03:24:12;24.15;;;10.70;;
64457;SDS011;58438;51.200;7.252;2022-10-31T03:27:00;26.20;;;12.30;;
64457;SDS011;58438;51.200;7.252;2022-10-31T03:29:47;25.13;;;12.23;;
64457;SDS011;58438;51.200;7.252;2022-10-31T03:32:38;26.98;;;13.05;;
64457;SDS011;58438;51.200;7.252;2022-10-31T03:35:27;26.60;;;11.23;;
64457;SDS011;58438;51.200;7.252;2022-10-31T03:38:14;23.77;;;11.82;;
64457;SDS011;58438;51.200;7.252;2022-10-31T03:41:04;26.80;;;13.15;;
64457;SDS011;58438;51.200;7.252;2022-10-31T03:43:52;30.73;;;12.57;;
64457;SDS011;58438;51.200;7.252;2022-10-31T03:46:42;29.90;;;13.23;;
64457;SDS011;58438;51.200;7.252;2022-10-31T03:49:29;26.40;;;13.40;;
64457;SDS011;58438;51.200;7.252;2022-10-31T03:52:19;28.35;;;13.30;;
64457;SDS011;58438;51.200;7.252;2022-10-31T03:55:10;29.98;;;13.00;;
64457;SDS011;58438;51.200;7.252;2022-10-31T03:58:02;28.98;;;12.68;;
64457;SDS011;58438;51.200;7.252;2022-10-31T04:00:51;29.05;;;13.90;;
64457;SDS011;58438;51.200;7.252;2022-10-31T04:03:38;37.72;;;14.07;;
64457;SDS011;58438;51.200;7.252;2022-10-31T04:06:26;28.73;;;13.98;;
64457;SDS011;58438;51.200;7.252;2022-10-31T04:09:14;28.60;;;14.05;;
64457;SDS011;58438;51.200;7.252;2022-10-31T04:12:02;31.27;;;14.38;;
64457;SDS011;58438;51.200;7.252;2022-10-31T04:14:55;26.13;;;12.65;;
64457;SDS011;58438;51.200;7.252;2022-10-31T04:17:42;30.20;;;14.15;;
64457;SDS011;58438;51.200;7.252;2022-10-31T04:20:32;29.98;;;13.82;;
64457;SDS011;58438;51.200;7.252;2022-10-31T04:23:20;29.02;;;14.57;;
64457;SDS011;58438;51.200;7.252;2022-10-31T04:26:09;31.80;;;14.73;;
64457;SDS011;58438;51.200;7.252;2022-10-31T04:28:58;34.40;;;15.95;;
64457;SDS011;58438;51.200;7.252;2022-10-31T04:31:46;33.05;;;15.07;;
64457;SDS011;58438;51.200;7.252;2022-10-31T04:34:34;32.20;;;14.85;;
64457;SDS011;58438;51.200;7.252;2022-10-31T04:37:21;34.17;;;16.10;;
64457;SDS011;58438;51.200;7.252;2022-10-31T04:40:08;31.58;;;15.55;;
64457;SDS011;58438;51.200;7.252;2022-10-31T04:42:55;34.10;;;17.10;;
64457;SDS011;58438;51.200;7.252;2022-10-31T04:45:43;33.67;;;14.95;;
64457;SDS011;58438;51.200;7.252;2022-10-31T04:48:31;32.05;;;15.68;;
64457;SDS011;58438;51.200;7.252;2022-10-31T04:51:18;29.15;;;14.57;;
64457;SDS011;58438;51.200;7.252;2022-10-31T04:54:05;39.60;;;15.68;;
64457;SDS011;58438;51.200;7.252;2022-10-31T04:56:53;30.20;;;15.30;;
64457;SDS011;58438;51.200;7.252;2022-10-31T04:59:40;36.42;;;17.08;;
64457;SDS011;58438;51.200;7.252;2022-10-31T05:02:27;28.02;;;15.52;;
64457;SDS011;58438;51.200;7.252;2022-10-31T05:05:17;34.67;;;15.48;;
64457;SDS011;58438;51.200;7.252;2022-10-31T05:08:04;31.92;;;15.98;;
64457;SDS011;58438;51.200;7.252;2022-10-31T05:10:52;34.10;;;14.93;;
64457;SDS011;58438;51.200;7.252;2022-10-31T05:13:39;31.83;;;15.13;;
64457;SDS011;58438;51.200;7.252;2022-10-31T05:16:26;31.77;;;15.60;;
64457;SDS011;58438;51.200;7.252;2022-10-31T05:19:14;35.97;;;15.70;;
64457;SDS011;58438;51.200;7.252;2022-10-31T05:22:03;31.80;;;15.93;;
64457;SDS011;58438;51.200;7.252;2022-10-31T05:24:50;34.22;;;15.02;;
64457;SDS011;58438;51.200;7.252;2022-10-31T05:27:38;30.23;;;14.75;;
64457;SDS011;58438;51.200;7.252;2022-10-31T05:30:26;35.92;;;16.55;;
64457;SDS011;58438;51.200;7.252;2022-10-31T05:33:13;36.40;;;16.38;;
64457;SDS011;58438;51.200;7.252;2022-10-31T05:36:00;40.17;;;17.13;;
64457;SDS011;58438;51.200;7.252;2022-10-31T05:38:49;38.20;;;17.75;;
64457;SDS011;58438;51.200;7.252;2022-10-31T05:41:36;40.72;;;17.10;;
64457;SDS011;58438;51.200;7.252;2022-10-31T05:44:23;39.13;;;16.95;;
64457;SDS011;58438;51.200;7.252;2022-10-31T05:47:10;41.97;;;16.67;;
64457;SDS011;58438;51.200;7.252;2022-10-31T05:49:57;45.17;;;17.58;;
64457;SDS011;58438;51.200;7.252;2022-10-31T05:52:44;45.65;;;18.75;;
64457;SDS011;58438;51.200;7.252;2022-10-31T05:55:33;38.25;;;17.08;;
64457;SDS011;58438;51.200;7.252;2022-10-31T05:58:20;47.38;;;19.40;;
64457;SDS011;58438;51.200;7.252;2022-10-31T06:01:08;48.85;;;19.70;;
64457;SDS011;58438;51.200;7.252;2022-10-31T06:03:55;47.40;;;19.08;;
64457;SDS011;58438;51.200;7.252;2022-10-31T06:06:42;45.47;;;18.15;;
64457;SDS011;58438;51.200;7.252;2022-10-31T06:09:29;44.40;;;18.27;;
64457;SDS011;58438;51.200;7.252;2022-10-31T06:12:18;49.80;;;18.27;;
64457;SDS011;58438;51.200;7.252;2022-10-31T06:15:05;46.30;;;20.15;;
64457;SDS011;58438;51.200;7.252;2022-10-31T06:18:02;47.95;;;19.92;;
64457;SDS011;58438;51.200;7.252;2022-10-31T06:20:49;54.78;;;21.08;;
64457;SDS011;58438;51.200;7.252;2022-10-31T06:23:36;49.17;;;21.05;;
64457;SDS011;58438;51.200;7.252;2022-10-31T06:26:23;51.55;;;21.35;;
64457;SDS011;58438;51.200;7.252;2022-10-31T06:29:12;53.17;;;22.92;;
64457;SDS011;58438;51.200;7.252;2022-10-31T06:31:59;47.38;;;21.88;;
64457;SDS011;58438;51.200;7.252;2022-10-31T06:34:46;50.97;;;20.92;;
64457;SDS011;58438;51.200;7.252;2022-10-31T06:37:34;49.80;;;20.55;;
64457;SDS011;58438;51.200;7.252;2022-10-31T06:40:22;47.50;;;20.15;;
64457;SDS011;58438;51.200;7.252;2022-10-31T06:43:09;47.33;;;18.48;;
64457;SDS011;58438;51.200;7.252;2022-10-31T06:46:01;45.75;;;19.58;;
64457;SDS011;58438;51.200;7.252;2022-10-31T06:48:48;44.75;;;19.48;;
64457;SDS011;58438;51.200;7.252;2022-10-31T06:51:36;44.78;;;21.15;;
64457;SDS011;58438;51.200;7.252;2022-10-31T06:54:23;46.50;;;19.50;;
64457;SDS011;58438;51.200;7.252;2022-10-31T06:57:10;45.85;;;20.02;;
64457;SDS011;58438;51.200;7.252;2022-10-31T06:59:57;45.75;;;20.63;;
64457;SDS011;58438;51.200;7.252;2022-10-31T07:02:53;55.28;;;21.08;;
64457;SDS011;58438;51.200;7.252;2022-10-31T07:05:40;50.30;;;21.13;;
64457;SDS011;58438;51.200;7.252;2022-10-31T07:08:27;48.55;;;20.08;;
64457;SDS011;58438;51.200;7.252;2022-10-31T07:11:14;51.33;;;21.60;;
64457;SDS011;58438;51.200;7.252;2022-10-31T07:14:01;48.35;;;21.63;;
64457;SDS011;58438;51.200;7.252;2022-10-31T07:16:48;56.55;;;21.13;;
64457;SDS011;58438;51.200;7.252;2022-10-31T07:19:37;50.45;;;21.77;;
64457;SDS011;58438;51.200;7.252;2022-10-31T07:22:24;54.67;;;21.77;;
64457;SDS011;58438;51.200;7.252;2022-10-31T07:25:11;62.50;;;21.27;;
64457;SDS011;58438;51.200;7.252;2022-10-31T07:27:58;53.13;;;22.73;;
64457;SDS011;58438;51.200;7.252;2022-10-31T07:30:49;50.28;;;20.30;;
64457;SDS011;58438;51.200;7.252;2022-10-31T07:33:36;51.17;;;20.73;;
64457;SDS011;58438;51.200;7.252;2022-10-31T07:36:24;56.63;;;20.35;;
64457;SDS011;58438;51.200;7.252;2022-10-31T07:39:12;50.78;;;21.10;;
64457;SDS011;58438;51.200;7.252;2022-10-31T07:41:59;50.88;;;20.35;;
64457;SDS011;58438;51.200;7.252;2022-10-31T07:44:46;46.30;;;20.25;;
64457;SDS011;58438;51.200;7.252;2022-10-31T07:47:38;41.88;;;20.23;;
64457;SDS011;58438;51.200;7.252;2022-10-31T07:50:30;49.47;;;19.33;;
64457;SDS011;58438;51.200;7.252;2022-10-31T07:53:19;43.58;;;18.98;;
64457;SDS011;58438;51.200;7.252;2022-10-31T07:56:06;48.95;;;19.27;;
64457;SDS011;58438;51.200;7.252;2022-10-31T07:58:54;50.75;;;19.98;;
64457;SDS011;58438;51.200;7.252;2022-10-31T08:01:41;42.35;;;18.42;;
64457;SDS011;58438;51.200;7.252;2022-10-31T08:04:28;43.53;;;17.92;;
64457;SDS011;58438;51.200;7.252;2022-10-31T08:07:15;44.17;;;18.98;;
64457;SDS011;58438;51.200;7.252;2022-10-31T08:10:04;39.70;;;16.90;;
64457;SDS011;58438;51.200;7.252;2022-10-31T08:12:55;46.17;;;18.77;;
64457;SDS011;58438;51.200;7.252;2022-10-31T08:15:42;44.15;;;18.02;;
64457;SDS011;58438;51.200;7.252;2022-10-31T08:18:30;44.72;;;19.05;;
64457;SDS011;58438;51.200;7.252;2022-10-31T08:21:17;42.92;;;18.73;;
64457;SDS011;58438;51.200;7.252;2022-10-31T08:24:05;42.20;;;17.27;;
64457;SDS011;58438;51.200;7.252;2022-10-31T08:26:54;39.30;;;16.98;;
64457;SDS011;58438;51.200;7.252;2022-10-31T08:29:41;42.15;;;17.65;;
64457;SDS011;58438;51.200;7.252;2022-10-31T08:32:28;36.28;;;15.60;;
64457;SDS011;58438;51.200;7.252;2022-10-31T08:35:15;39.60;;;16.67;;
64457;SDS011;58438;51.200;7.252;2022-10-31T08:38:02;42.25;;;17.13;;
64457;SDS011;58438;51.200;7.252;2022-10-31T08:40:50;40.50;;;17.27;;
64457;SDS011;58438;51.200;7.252;2022-10-31T08:43:38;32.78;;;15.55;;
64457;SDS011;58438;51.200;7.252;2022-10-31T08:46:26;36.42;;;16.23;;
64457;SDS011;58438;51.200;7.252;2022-10-31T08:49:13;38.10;;;18.00;;
64457;SDS011;58438;51.200;7.252;2022-10-31T08:52:01;36.03;;;15.07;;
64457;SDS011;58438;51.200;7.252;2022-10-31T08:54:48;36.33;;;14.40;;
64457;SDS011;58438;51.200;7.252;2022-10-31T08:57:35;28.75;;;14.55;;
64457;SDS011;58438;51.200;7.252;2022-10-31T09:00:24;27.30;;;13.13;;
64457;SDS011;58438;51.200;7.252;2022-10-31T09:03:13;33.95;;;15.13;;
64457;SDS011;58438;51.200;7.252;2022-10-31T09:06:01;32.55;;;14.18;;
64457;SDS011;58438;51.200;7.252;2022-10-31T09:08:51;29.88;;;14.00;;
64457;SDS011;58438;51.200;7.252;2022-10-31T09:11:38;28.60;;;15.10;;
64457;SDS011;58438;51.200;7.252;2022-10-31T09:14:25;27.17;;;13.45;;
64457;SDS011;58438;51.200;7.252;2022-10-31T09:17:14;31.25;;;15.05;;
64457;SDS011;58438;51.200;7.252;2022-10-31T09:20:01;35.60;;;14.70;;
64457;SDS011;58438;51.200;7.252;2022-10-31T09:22:54;28.83;;;14.68;;
64457;SDS011;58438;51.200;7.252;2022-10-31T09:25:41;33.00;;;14.90;;
64457;SDS011;58438;51.200;7.252;2022-10-31T09:28:34;29.80;;;13.10;;
64457;SDS011;58438;51.200;7.252;2022-10-31T09:31:22;31.45;;;13.65;;
64457;SDS011;58438;51.200;7.252;2022-10-31T09:34:10;26.40;;;13.35;;
64457;SDS011;58438;51.200;7.252;2022-10-31T09:36:58;29.85;;;13.52;;
64457;SDS011;58438;51.200;7.252;2022-10-31T09:39:45;29.20;;;13.02;;
64457;SDS011;58438;51.200;7.252;2022-10-31T09:42:36;27.80;;;12.77;;
64457;SDS011;58438;51.200;7.252;2022-10-31T09:45:26;27.60;;;12.73;;
64457;SDS011;58438;51.200;7.252;2022-10-31T09:48:23;28.85;;;12.10;;
64457;SDS011;58438;51.200;7.252;2022-10-31T09:51:15;26.17;;;12.40;;
64457;SDS011;58438;51.200;7.252;2022-10-31T09:54:05;26.52;;;12.07;;
64457;SDS011;58438;51.200;7.252;2022-10-31T09:56:53;28.63;;;13.15;;
64457;SDS011;58438;51.200;7.252;2022-10-31T09:59:43;25.17;;;11.68;;
64457;SDS011;58438;51.200;7.252;2022-10-31T10:02:33;23.30;;;11.35;;
64457;SDS011;58438;51.200;7.252;2022-10-31T10:05:24;19.92;;;10.98;;
64457;SDS011;58438;51.200;7.252;2022-10-31T10:08:18;22.98;;;10.15;;
64457;SDS011;58438;51.200;7.252;2022-10-31T10:11:12;19.90;;;10.90;;
64457;SDS011;58438;51.200;7.252;2022-10-31T10:14:09;22.50;;;10.48;;
64457;SDS011;58438;51.200;7.252;2022-10-31T10:17:05;19.83;;;10.25;;
64457;SDS011;58438;51.200;7.252;2022-10-31T10:20:03;20.02;;;9.93;;
64457;SDS011;58438;51.200;7.252;2022-10-31T10:22:52;19.90;;;10.00;;
64457;SDS011;58438;51.200;7.252;2022-10-31T10:25:44;21.00;;;10.30;;
64457;SDS011;58438;51.200;7.252;2022-10-31T10:28:35;26.08;;;9.65;;
64457;SDS011;58438;51.200;7.252;2022-10-31T10:31:24;20.70;;;9.77;;
64457;SDS011;58438;51.200;7.252;2022-10-31T10:34:13;23.80;;;10.20;;
64457;SDS011;58438;51.200;7.252;2022-10-31T10:37:04;17.55;;;9.05;;
64457;SDS011;58438;51.200;7.252;2022-10-31T10:39:53;20.15;;;8.77;;
64457;SDS011;58438;51.200;7.252;2022-10-31T10:42:43;18.42;;;8.55;;
64457;SDS011;58438;51.200;7.252;2022-10-31T10:45:50;15.95;;;7.95;;
64457;SDS011;58438;51.200;7.252;2022-10-31T10:48:58;15.27;;;7.57;;
64457;SDS011;58438;51.200;7.252;2022-10-31T10:51:47;13.00;;;7.50;;
64457;SDS011;58438;51.200;7.252;2022-10-31T10:54:59;15.48;;;7.10;;
64457;SDS011;58438;51.200;7.252;2022-10-31T10:57:54;11.43;;;6.20;;
64457;SDS011;58438;51.200;7.252;2022-10-31T11:00:44;13.48;;;6.20;;
64457;SDS011;58438;51.200;7.252;2022-10-31T11:03:33;14.30;;;6.28;;
64457;SDS011;58438;51.200;7.252;2022-10-31T11:06:23;11.57;;;6.10;;
64457;SDS011;58438;51.200;7.252;2022-10-31T11:09:11;13.95;;;5.75;;
64457;SDS011;58438;51.200;7.252;2022-10-31T11:11:59;11.68;;;5.75;;
64457;SDS011;58438;51.200;7.252;2022-10-31T11:14:49;14.43;;;6.13;;
64457;SDS011;58438;51.200;7.252;2022-10-31T11:17:38;13.25;;;5.82;;
64457;SDS011;58438;51.200;7.252;2022-10-31T11:20:27;10.40;;;5.38;;
64457;SDS011;58438;51.200;7.252;2022-10-31T11:23:18;14.55;;;5.85;;
64457;SDS011;58438;51.200;7.252;2022-10-31T11:26:06;10.48;;;5.53;;
64457;SDS011;58438;51.200;7.252;2022-10-31T11:28:56;10.70;;;5.57;;
64457;SDS011;58438;51.200;7.252;2022-10-31T11:31:45;12.38;;;4.78;;
64457;SDS011;58438;51.200;7.252;2022-10-31T11:34:34;13.32;;;5.78;;
64457;SDS011;58438;51.200;7.252;2022-10-31T11:37:23;12.10;;;5.18;;
64457;SDS011;58438;51.200;7.252;2022-10-31T11:40:15;12.27;;;5.05;;
64457;SDS011;58438;51.200;7.252;2022-10-31T11:43:03;15.10;;;5.82;;
64457;SDS011;58438;51.200;7.252;2022-10-31T11:45:51;11.07;;;5.57;;
64457;SDS011;58438;51.200;7.252;2022-10-31T11:48:39;9.88;;;5.45;;
64457;SDS011;58438;51.200;7.252;2022-10-31T11:54:20;13.32;;;5.50;;
64457;SDS011;58438;51.200;7.252;2022-10-31T11:57:21;13.40;;;5.75;;
64457;SDS011;58438;51.200;7.252;2022-10-31T12:00:19;9.63;;;5.25;;
64457;SDS011;58438;51.200;7.252;2022-10-31T12:03:10;11.25;;;5.30;;
64457;SDS011;58438;51.200;7.252;2022-10-31T12:06:02;11.95;;;5.03;;
64457;SDS011;58438;51.200;7.252;2022-10-31T12:08:50;10.43;;;5.47;;
64457;SDS011;58438;51.200;7.252;2022-10-31T12:11:41;9.90;;;4.70;;
64457;SDS011;58438;51.200;7.252;2022-10-31T12:14:32;10.77;;;4.63;;
64457;SDS011;58438;51.200;7.252;2022-10-31T12:17:21;11.73;;;5.50;;
64457;SDS011;58438;51.200;7.252;2022-10-31T12:20:12;11.43;;;5.32;;
64457;SDS011;58438;51.200;7.252;2022-10-31T12:23:09;8.32;;;4.53;;
64457;SDS011;58438;51.200;7.252;2022-10-31T12:25:58;12.05;;;4.90;;
64457;SDS011;58438;51.200;7.252;2022-10-31T12:28:54;12.48;;;4.78;;
64457;SDS011;58438;51.200;7.252;2022-10-31T12:31:46;9.68;;;4.95;;
64457;SDS011;58438;51.200;7.252;2022-10-31T12:34:56;12.90;;;5.60;;
64457;SDS011;58438;51.200;7.252;2022-10-31T12:37:50;11.35;;;4.85;;
64457;SDS011;58438;51.200;7.252;2022-10-31T12:40:50;10.15;;;5.00;;
64457;SDS011;58438;51.200;7.252;2022-10-31T12:43:42;11.38;;;5.25;;
64457;SDS011;58438;51.200;7.252;2022-10-31T12:46:36;10.82;;;6.10;;
64457;SDS011;58438;51.200;7.252;2022-10-31T12:49:27;13.05;;;5.13;;
64457;SDS011;58438;51.200;7.252;2022-10-31T12:52:23;11.53;;;5.00;;
64457;SDS011;58438;51.200;7.252;2022-10-31T12:55:19;14.63;;;6.38;;
64457;SDS011;58438;51.200;7.252;2022-10-31T12:58:17;16.15;;;6.10;;
64457;SDS011;58438;51.200;7.252;2022-10-31T13:01:08;13.05;;;4.55;;
64457;SDS011;58438;51.200;7.252;2022-10-31T13:03:57;12.48;;;5.40;;
64457;SDS011;58438;51.200;7.252;2022-10-31T13:06:49;9.63;;;5.10;;
64457;SDS011;58438;51.200;7.252;2022-10-31T13:09:38;12.10;;;5.25;;
64457;SDS011;58438;51.200;7.252;2022-10-31T13:12:27;11.85;;;5.00;;
64457;SDS011;58438;51.200;7.252;2022-10-31T13:15:23;21.77;;;5.50;;
64457;SDS011;58438;51.200;7.252;2022-10-31T13:18:12;8.60;;;4.70;;
64457;SDS011;58438;51.200;7.252;2022-10-31T13:23:52;14.85;;;5.82;;
64457;SDS011;58438;51.200;7.252;2022-10-31T13:26:43;10.25;;;4.93;;
64457;SDS011;58438;51.200;7.252;2022-10-31T13:29:33;16.05;;;6.32;;
64457;SDS011;58438;51.200;7.252;2022-10-31T13:32:22;12.27;;;4.95;;
64457;SDS011;58438;51.200;7.252;2022-10-31T13:35:12;14.73;;;5.60;;
64457;SDS011;58438;51.200;7.252;2022-10-31T13:38:08;12.93;;;5.38;;
64457;SDS011;58438;51.200;7.252;2022-10-31T13:40:57;12.68;;;5.63;;
64457;SDS011;58438;51.200;7.252;2022-10-31T13:43:51;10.00;;;5.15;;
64457;SDS011;58438;51.200;7.252;2022-10-31T13:46:42;15.98;;;5.05;;
64457;SDS011;58438;51.200;7.252;2022-10-31T13:49:39;11.75;;;6.03;;
64457;SDS011;58438;51.200;7.252;2022-10-31T13:52:26;12.63;;;5.85;;
64457;SDS011;58438;51.200;7.252;2022-10-31T13:58:19;8.80;;;4.35;;
64457;SDS011;58438;51.200;7.252;2022-10-31T14:01:12;12.70;;;5.70;;
64457;SDS011;58438;51.200;7.252;2022-10-31T14:04:03;10.55;;;5.85;;
64457;SDS011;58438;51.200;7.252;2022-10-31T14:07:11;9.13;;;5.22;;
64457;SDS011;58438;51.200;7.252;2022-10-31T14:10:01;10.18;;;5.47;;
64457;SDS011;58438;51.200;7.252;2022-10-31T14:12:50;10.90;;;5.25;;
64457;SDS011;58438;51.200;7.252;2022-10-31T14:15:38;13.98;;;5.80;;
64457;SDS011;58438;51.200;7.252;2022-10-31T14:18:28;13.88;;;5.95;;
64457;SDS011;58438;51.200;7.252;2022-10-31T14:21:25;17.40;;;5.82;;
64457;SDS011;58438;51.200;7.252;2022-10-31T14:24:16;15.60;;;6.88;;
64457;SDS011;58438;51.200;7.252;2022-10-31T14:27:33;13.07;;;5.50;;
64457;SDS011;58438;51.200;7.252;2022-10-31T14:30:22;13.20;;;5.28;;
64457;SDS011;58438;51.200;7.252;2022-10-31T14:33:12;9.20;;;5.93;;
64457;SDS011;58438;51.200;7.252;2022-10-31T14:36:04;13.00;;;5.03;;
64457;SDS011;58438;51.200;7.252;2022-10-31T14:39:00;13.73;;;5.95;;
64457;SDS011;58438;51.200;7.252;2022-10-31T14:41:54;12.57;;;5.38;;
64457;SDS011;58438;51.200;7.252;2022-10-31T14:44:50;12.13;;;5.35;;
64457;SDS011;58438;51.200;7.252;2022-10-31T14:47:43;13.70;;;6.35;;
64457;SDS011;58438;51.200;7.252;2022-10-31T14:50:37;7.07;;;4.70;;
64457;SDS011;58438;51.200;7.252;2022-10-31T14:56:17;11.43;;;4.57;;
64457;SDS011;58438;51.200;7.252;2022-10-31T14:59:08;17.38;;;5.82;;
64457;SDS011;58438;51.200;7.252;2022-10-31T15:01:56;10.40;;;4.95;;
64457;SDS011;58438;51.200;7.252;2022-10-31T15:04:45;9.70;;;4.30;;
64457;SDS011;58438;51.200;7.252;2022-10-31T15:07:33;10.88;;;4.70;;
64457;SDS011;58438;51.200;7.252;2022-10-31T15:10:23;8.95;;;4.38;;
64457;SDS011;58438;51.200;7.252;2022-10-31T15:13:14;11.90;;;5.28;;
64457;SDS011;58438;51.200;7.252;2022-10-31T15:16:07;12.93;;;4.60;;
64457;SDS011;58438;51.200;7.252;2022-10-31T15:18:56;12.15;;;4.68;;
64457;SDS011;58438;51.200;7.252;2022-10-31T15:21:45;14.60;;;4.90;;
64457;SDS011;58438;51.200;7.252;2022-10-31T15:24:33;32.35;;;14.05;;
64457;SDS011;58438;51.200;7.252;2022-10-31T15:27:20;12.73;;;4.80;;
64457;SDS011;58438;51.200;7.252;2022-10-31T15:30:15;12.25;;;5.32;;
64457;SDS011;58438;51.200;7.252;2022-10-31T15:33:15;9.90;;;4.72;;
64457;SDS011;58438;51.200;7.252;2022-10-31T15:36:05;14.43;;;4.55;;
64457;SDS011;58438;51.200;7.252;2022-10-31T15:38:55;9.63;;;4.30;;
64457;SDS011;58438;51.200;7.252;2022-10-31T15:41:49;9.68;;;4.20;;
64457;SDS011;58438;51.200;7.252;2022-10-31T15:44:40;13.02;;;4.95;;
64457;SDS011;58438;51.200;7.252;2022-10-31T15:47:28;11.10;;;4.43;;
64457;SDS011;58438;51.200;7.252;2022-10-31T15:50:20;11.68;;;4.50;;
64457;SDS011;58438;51.200;7.252;2022-10-31T15:53:13;11.07;;;4.95;;
64457;SDS011;58438;51.200;7.252;2022-10-31T15:58:49;8.77;;;3.85;;
64457;SDS011;58438;51.200;7.252;2022-10-31T16:01:37;10.80;;;4.22;;
64457;SDS011;58438;51.200;7.252;2022-10-31T16:04:24;12.10;;;4.78;;
64457;SDS011;58438;51.200;7.252;2022-10-31T16:07:14;14.80;;;4.32;;
64457;SDS011;58438;51.200;7.252;2022-10-31T16:10:21;11.35;;;4.60;;
64457;SDS011;58438;51.200;7.252;2022-10-31T16:13:09;11.77;;;4.95;;
64457;SDS011;58438;51.200;7.252;2022-10-31T16:15:56;10.20;;;4.45;;
64457;SDS011;58438;51.200;7.252;2022-10-31T16:19:05;8.18;;;4.50;;
64457;SDS011;58438;51.200;7.252;2022-10-31T16:22:02;8.35;;;3.70;;
64457;SDS011;58438;51.200;7.252;2022-10-31T16:24:53;11.77;;;4.55;;
64457;SDS011;58438;51.200;7.252;2022-10-31T16:27:47;14.98;;;4.60;;
64457;SDS011;58438;51.200;7.252;2022-10-31T16:30:39;11.43;;;4.80;;
64457;SDS011;58438;51.200;7.252;2022-10-31T16:33:33;9.20;;;4.18;;
64457;SDS011;58438;51.200;7.252;2022-10-31T16:36:31;8.65;;;3.95;;
64457;SDS011;58438;51.200;7.252;2022-10-31T16:39:21;8.93;;;4.32;;
64457;SDS011;58438;51.200;7.252;2022-10-31T16:42:10;9.60;;;3.90;;
64457;SDS011;58438;51.200;7.252;2022-10-31T16:44:58;7.95;;;3.92;;
64457;SDS011;58438;51.200;7.252;2022-10-31T16:47:45;8.30;;;3.70;;
64457;SDS011;58438;51.200;7.252;2022-10-31T16:50:34;10.73;;;3.97;;
64457;SDS011;58438;51.200;7.252;2022-10-31T16:53:21;11.57;;;4.22;;
64457;SDS011;58438;51.200;7.252;2022-10-31T16:56:11;10.75;;;4.22;;
64457;SDS011;58438;51.200;7.252;2022-10-31T16:59:03;12.50;;;4.50;;